Time;durP1;ratioP1;P1;durP2;ratioP2;P2;SDS_P1;SDS_P2;PMS_P1;PMS_P2;Temp;Humidity;BMP_temperature;BMP_pressure;BME280_temperature;BME280_humidity;BME280_pressure;Samples;Min_cycle;Max_cycle;Signal;HPM_P1;HPM_P2
2021/04/23 00:01:54;;;;;;;29.20;11.63;;;;;;;2.06;66.93;99196.58;2258056;79;21080;-78
2021/04/23 00:04:56;;;;;;;23.40;9.87;;;;;;;2.02;67.14;99197.23;2257913;79;21109;-79
2021/04/23 00:07:57;;;;;;;24.33;10.47;;;;;;;2.00;67.28;99195.86;2257902;79;21385;-78
2021/04/23 00:10:58;;;;;;;36.23;11.73;;;;;;;2.02;67.24;99193.37;2228285;79;21158;-80
2021/04/23 00:13:59;;;;;;;31.30;10.80;;;;;;;2.03;67.50;99187.41;2226582;80;21105;-78
2021/04/23 00:17:00;;;;;;;26.10;10.73;;;;;;;2.04;67.45;99189.18;2226306;79;21421;-78
2021/04/23 00:20:01;;;;;;;20.20;9.93;;;;;;;2.03;67.52;99188.30;2226222;80;21181;-80
2021/04/23 00:23:02;;;;;;;22.80;10.07;;;;;;;2.06;67.67;99192.72;2226241;80;21070;-78
2021/04/23 00:26:03;;;;;;;22.63;10.33;;;;;;;2.04;67.60;99193.92;2226253;80;21095;-79
2021/04/23 00:29:04;;;;;;;32.47;10.70;;;;;;;2.00;67.71;99190.72;2226268;79;21125;-78
2021/04/23 00:35:24;;;;;;;27.57;12.17;;;;;;;1.90;67.98;99186.79;2226251;80;21404;-78
2021/04/23 00:38:25;;;;;;;32.27;13.00;;;;;;;1.88;68.68;99190.09;2226350;80;21106;-79
2021/04/23 00:41:26;;;;;;;25.03;12.53;;;;;;;1.80;68.49;99185.84;2226563;80;21168;-79
2021/04/23 00:44:28;;;;;;;26.17;10.67;;;;;;;1.78;68.95;99186.16;2226555;80;21082;-80
2021/04/23 00:47:29;;;;;;;23.70;10.93;;;;;;;1.77;69.52;99185.68;2226916;80;21121;-78
2021/04/23 00:50:30;;;;;;;26.07;11.63;;;;;;;1.76;69.40;99188.17;2226343;80;21090;-79
2021/04/23 00:53:31;;;;;;;33.97;12.40;;;;;;;1.75;69.47;99183.83;2226809;79;21125;-80
2021/04/23 00:56:33;;;;;;;47.00;13.33;;;;;;;1.73;69.60;99188.86;2226407;80;21082;-79
2021/04/23 00:59:34;;;;;;;36.43;14.67;;;;;;;1.69;69.39;99189.91;2226452;80;21474;-78
2021/04/23 01:02:35;;;;;;;33.53;12.57;;;;;;;1.69;70.17;99189.51;2226515;80;21198;-79
2021/04/23 01:05:36;;;;;;;28.87;11.97;;;;;;;1.70;69.68;99186.13;2226501;80;21402;-78
2021/04/23 01:08:37;;;;;;;30.33;12.60;;;;;;;1.66;70.37;99189.35;2228641;79;21102;-78
2021/04/23 01:11:38;;;;;;;32.10;11.30;;;;;;;1.63;70.18;99187.91;2258055;78;21101;-78
2021/04/23 01:14:39;;;;;;;27.37;13.27;;;;;;;1.56;70.33;99182.84;2258066;79;21452;-79
2021/04/23 01:17:40;;;;;;;28.27;12.33;;;;;;;1.52;70.47;99192.89;2258678;79;21097;-80
2021/04/23 01:20:41;;;;;;;31.67;11.07;;;;;;;1.48;70.50;99193.53;2258244;79;21152;-77
2021/04/23 01:23:42;;;;;;;29.03;11.80;;;;;;;1.68;71.00;99195.86;2258065;79;21073;-79
2021/04/23 01:26:44;;;;;;;31.23;13.07;;;;;;;1.58;70.90;99196.67;2257964;78;21249;-79
2021/04/23 01:29:45;;;;;;;26.90;10.40;;;;;;;1.49;70.51;99197.88;2257893;79;21097;-79
2021/04/23 01:32:46;;;;;;;34.43;11.67;;;;;;;1.46;70.56;99197.72;2258222;79;21108;-78
2021/04/23 01:35:47;;;;;;;24.53;11.40;;;;;;;1.43;70.62;99203.58;2258091;79;21399;-78
2021/04/23 01:38:48;;;;;;;34.80;11.77;;;;;;;1.42;71.40;99203.50;2257793;79;21104;-79
2021/04/23 01:41:49;;;;;;;30.33;11.37;;;;;;;1.39;70.98;99208.08;2257929;79;21097;-78
2021/04/23 01:44:50;;;;;;;27.77;11.70;;;;;;;1.43;70.97;99210.41;2257898;79;21398;-78
2021/04/23 01:47:51;;;;;;;26.20;11.00;;;;;;;1.45;70.99;99208.41;2257842;79;21085;-79
2021/04/23 01:50:52;;;;;;;29.70;11.77;;;;;;;1.45;71.17;99213.95;2257726;79;21073;-78
2021/04/23 01:53:53;;;;;;;24.03;11.67;;;;;;;1.43;71.24;99208.73;2257803;79;21128;-78
2021/04/23 01:56:54;;;;;;;23.17;10.27;;;;;;;1.43;71.29;99202.30;2257987;79;21218;-80
2021/04/23 01:59:55;;;;;;;30.73;11.57;;;;;;;1.42;71.61;99203.50;2258020;79;21132;-78
2021/04/23 02:02:56;;;;;;;37.17;11.03;;;;;;;1.41;71.71;99210.73;2257887;79;21088;-79
2021/04/23 02:05:58;;;;;;;20.67;9.90;;;;;;;1.39;71.84;99209.36;2258012;78;21128;-78
2021/04/23 02:08:59;;;;;;;26.40;11.27;;;;;;;1.38;72.11;99218.28;2257925;79;21108;-78
2021/04/23 02:12:00;;;;;;;25.57;10.33;;;;;;;1.37;71.75;99213.55;2257947;79;21082;-78
2021/04/23 02:15:01;;;;;;;34.93;10.67;;;;;;;1.38;72.07;99220.45;2257973;79;21375;-78
2021/04/23 02:18:02;;;;;;;36.67;10.07;;;;;;;1.39;72.01;99219.66;2258209;79;21096;-79
2021/04/23 02:21:03;;;;;;;20.63;9.63;;;;;;;1.41;72.07;99223.19;2257878;78;21454;-78
2021/04/23 02:24:04;;;;;;;24.57;9.80;;;;;;;1.40;72.08;99219.25;2257931;79;21223;-78
2021/04/23 02:27:05;;;;;;;27.93;8.47;;;;;;;1.38;72.08;99217.00;2258022;79;21513;-78
2021/04/23 02:30:09;;;;;;;29.85;10.18;;;;;;;1.38;72.50;99219.58;2258377;79;21338;-78
2021/04/23 02:33:10;;;;;;;16.93;9.63;;;;;;;1.34;72.12;99215.06;2257934;79;21137;-78
2021/04/23 02:36:11;;;;;;;18.07;7.90;;;;;;;1.34;72.45;99215.06;2258350;79;21132;-79
2021/04/23 02:39:12;;;;;;;21.10;8.07;;;;;;;1.31;72.56;99215.78;2258284;79;21140;-79
2021/04/23 02:42:13;;;;;;;17.17;8.53;;;;;;;1.31;72.89;99220.05;2258050;79;21078;-79
2021/04/23 02:45:14;;;;;;;23.17;10.60;;;;;;;1.28;72.53;99221.65;2258034;79;21120;-79
2021/04/23 02:48:15;;;;;;;26.57;12.27;;;;;;;1.25;72.47;99224.05;2258050;79;21105;-78
2021/04/23 02:51:16;;;;;;;27.53;11.40;;;;;;;1.24;72.29;99222.28;2258028;79;21108;-80
2021/04/23 02:54:18;;;;;;;25.30;10.07;;;;;;;1.23;72.28;99228.23;2258340;79;21508;-79
2021/04/23 02:57:19;;;;;;;46.03;11.60;;;;;;;1.22;72.24;99230.72;2258345;78;21100;-79
2021/04/23 03:00:20;;;;;;;21.17;7.73;;;;;;;1.17;71.70;99229.19;2257947;79;21117;-79
2021/04/23 03:03:21;;;;;;;21.37;7.63;;;;;;;1.05;71.38;99225.06;2257854;79;21116;-78
2021/04/23 03:06:23;;;;;;;16.40;7.00;;;;;;;0.91;71.66;99224.30;2257845;79;21401;-77
2021/04/23 03:09:24;;;;;;;19.67;7.80;;;;;;;0.74;70.69;99224.61;2257819;79;21152;-78
2021/04/23 03:12:25;;;;;;;17.20;7.47;;;;;;;0.57;70.51;99226.23;2258056;79;21100;-77
2021/04/23 03:15:26;;;;;;;18.87;7.70;;;;;;;0.51;70.83;99230.13;2258127;79;21100;-79
2021/04/23 03:18:27;;;;;;;19.83;8.33;;;;;;;0.45;71.07;99226.81;2257967;79;21124;-79
2021/04/23 03:21:28;;;;;;;18.10;8.60;;;;;;;0.39;71.09;99233.28;2258146;79;21410;-79
2021/04/23 03:24:29;;;;;;;18.90;8.47;;;;;;;0.36;71.29;99236.55;2257935;78;21109;-79
2021/04/23 03:27:30;;;;;;;17.10;8.30;;;;;;;0.38;71.64;99240.50;2257924;79;21129;-79
2021/04/23 03:30:32;;;;;;;25.00;10.20;;;;;;;0.40;71.31;99238.50;2257956;78;21089;-79
2021/04/23 03:33:33;;;;;;;20.63;10.03;;;;;;;0.42;72.04;99243.73;2257849;78;21136;-79
2021/04/23 03:36:34;;;;;;;32.57;11.57;;;;;;;0.46;72.44;99245.67;2257921;79;21414;-79
2021/04/23 03:39:35;;;;;;;32.93;12.03;;;;;;;0.55;72.52;99243.63;2258245;79;21152;-80
2021/04/23 03:42:36;;;;;;;28.60;13.50;;;;;;;0.59;72.18;99246.86;2257895;79;21097;-79
2021/04/23 03:45:37;;;;;;;27.33;12.57;;;;;;;0.65;72.41;99249.78;2258249;79;21100;-80
2021/04/23 03:48:38;;;;;;;26.13;12.37;;;;;;;0.67;72.31;99257.18;2258112;78;21107;-78
2021/04/23 03:51:39;;;;;;;44.03;14.33;;;;;;;0.73;73.11;99260.49;2257842;79;21351;-79
2021/04/23 03:54:41;;;;;;;27.77;12.77;;;;;;;0.79;72.69;99260.44;2257578;79;21109;-79
2021/04/23 03:57:42;;;;;;;27.03;12.27;;;;;;;0.84;72.92;99266.73;2257981;78;21061;-79
2021/04/23 04:00:43;;;;;;;34.27;14.13;;;;;;;0.91;73.08;99264.13;2258104;79;21129;-79
2021/04/23 04:03:44;;;;;;;27.93;14.83;;;;;;;0.97;72.83;99261.02;2257844;79;21100;-79
2021/04/23 04:06:46;;;;;;;32.73;14.73;;;;;;;1.06;72.63;99267.56;2257929;79;21418;-80
2021/04/23 04:09:47;;;;;;;30.73;14.97;;;;;;;1.15;72.79;99261.64;2258024;78;21144;-79
2021/04/23 04:12:48;;;;;;;35.77;16.07;;;;;;;1.28;73.03;99269.23;2258420;79;21121;-80
2021/04/23 04:15:49;;;;;;;38.67;15.47;;;;;;;1.39;73.29;99271.10;2257785;79;21386;-79
2021/04/23 04:18:50;;;;;;;31.00;13.73;;;;;;;1.49;73.08;99280.20;2257511;79;21101;-79
2021/04/23 04:21:51;;;;;;;32.53;13.33;;;;;;;1.59;73.16;99275.63;2257907;79;21109;-78
2021/04/23 04:24:52;;;;;;;30.97;13.00;;;;;;;1.71;73.11;99272.83;2257760;79;21403;-78
2021/04/23 04:27:54;;;;;;;27.83;13.07;;;;;;;1.87;73.11;99280.59;2258060;79;21399;-79
2021/04/23 04:30:56;;;;;;;36.97;14.07;;;;;;;2.02;73.09;99274.48;2258070;79;21129;-80
2021/04/23 04:33:57;;;;;;;29.93;13.07;;;;;;;2.18;73.10;99283.07;2258011;79;21096;-79
2021/04/23 04:36:58;;;;;;;34.43;13.10;;;;;;;2.40;72.92;99286.74;2257798;79;21294;-79
2021/04/23 04:39:59;;;;;;;23.17;11.53;;;;;;;2.60;72.80;99287.38;2257749;79;21160;-79
2021/04/23 04:43:00;;;;;;;23.13;11.67;;;;;;;2.78;72.50;99292.16;2257723;79;21148;-78
2021/04/23 04:46:01;;;;;;;18.30;11.33;;;;;;;2.91;72.16;99292.75;2257740;79;21343;-78
2021/04/23 04:49:02;;;;;;;27.13;13.37;;;;;;;2.93;72.01;99297.58;2258434;79;21124;-81
2021/04/23 04:52:03;;;;;;;29.07;13.40;;;;;;;2.90;71.93;99294.45;2258792;79;21101;-80
2021/04/23 04:55:05;;;;;;;22.23;13.07;;;;;;;2.91;72.00;99293.64;2258187;79;21219;-80
2021/04/23 04:58:09;;;;;;;28.33;13.53;;;;;;;2.96;72.37;99297.33;2257512;79;21093;-80
2021/04/23 05:01:11;;;;;;;29.98;15.28;;;;;;;2.95;72.17;99303.30;2258424;79;21132;-80
2021/04/23 05:04:12;;;;;;;41.80;15.43;;;;;;;3.06;71.94;99308.57;2257820;79;21403;-79
2021/04/23 05:07:13;;;;;;;36.60;16.17;;;;;;;3.21;71.89;99309.72;2258444;79;21128;-81
2021/04/23 05:10:14;;;;;;;31.70;15.47;;;;;;;3.41;71.57;99314.53;2250051;79;21149;-80
2021/04/23 05:13:15;;;;;;;39.40;19.20;;;;;;;3.70;71.27;99315.52;2227020;79;21089;-78
2021/04/23 05:16:16;;;;;;;28.00;13.23;;;;;;;4.03;70.80;99318.75;2227726;79;21113;-78
2021/04/23 05:19:17;;;;;;;31.70;14.30;;;;;;;4.33;70.14;99321.81;2226906;80;21129;-80
2021/04/23 05:22:18;;;;;;;19.53;10.13;;;;;;;4.49;69.62;99324.69;2226795;80;21074;-79
2021/04/23 05:25:19;;;;;;;25.90;11.20;;;;;;;4.73;69.29;99323.55;2226949;80;21101;-80
2021/04/23 05:28:21;;;;;;;22.40;11.07;;;;;;;5.13;68.59;99326.98;2227043;80;21118;-81
2021/04/23 05:31:22;;;;;;;29.53;10.30;;;;;;;5.09;68.16;99326.38;2227214;80;21074;-82
2021/04/23 05:34:23;;;;;;;18.80;9.80;;;;;;;5.02;68.54;99336.41;2227177;80;21102;-81
2021/04/23 05:37:24;;;;;;;22.77;9.93;;;;;;;4.99;68.35;99332.00;2227120;80;21129;-81
2021/04/23 05:40:25;;;;;;;27.60;9.80;;;;;;;4.93;68.25;99337.33;2226821;80;21157;-81
2021/04/23 05:43:26;;;;;;;18.77;10.47;;;;;;;4.92;68.81;99341.62;2226638;80;21098;-82
2021/04/23 05:46:27;;;;;;;22.93;9.90;;;;;;;4.90;68.67;99342.38;2227009;80;21101;-79
2021/04/23 05:49:28;;;;;;;21.83;10.80;;;;;;;4.89;68.76;99350.55;2227606;80;21222;-81
2021/04/23 05:52:29;;;;;;;18.23;10.80;;;;;;;4.96;68.77;99341.34;2227354;80;21216;-79
2021/04/23 05:55:30;;;;;;;22.63;11.53;;;;;;;5.02;68.56;99346.77;2226919;80;21097;-80
2021/04/23 05:58:31;;;;;;;17.20;9.30;;;;;;;5.03;68.63;99352.00;2227338;80;21070;-81
2021/04/23 06:01:33;;;;;;;16.43;9.30;;;;;;;5.12;68.39;99347.20;2227123;79;21248;-81
2021/04/23 06:04:34;;;;;;;26.10;13.33;;;;;;;5.39;67.77;99345.30;2226589;80;21225;-81
2021/04/23 06:07:35;;;;;;;16.83;10.03;;;;;;;5.59;67.62;99347.38;2226594;80;21134;-79
2021/04/23 06:10:37;;;;;;;25.40;11.27;;;;;;;5.64;66.97;99351.92;2226852;79;21141;-80
2021/04/23 06:13:38;;;;;;;21.83;11.30;;;;;;;5.52;67.58;99354.44;2226909;80;21114;-81
2021/04/23 06:16:39;;;;;;;21.13;12.77;;;;;;;5.30;67.64;99358.75;2226987;79;21141;-81
2021/04/23 06:19:40;;;;;;;27.17;14.77;;;;;;;5.12;68.08;99357.56;2226826;80;21140;-82
2021/04/23 06:22:41;;;;;;;27.20;14.77;;;;;;;5.08;68.42;99355.66;2227016;80;21126;-81
2021/04/23 06:25:42;;;;;;;30.37;17.37;;;;;;;5.24;68.37;99349.86;2227047;80;21442;-82
2021/04/23 06:28:44;;;;;;;20.33;12.50;;;;;;;5.77;67.60;99350.69;2227188;80;21085;-82
2021/04/23 06:31:45;;;;;;;24.20;13.03;;;;;;;6.15;66.16;99361.28;2227088;80;21093;-80
2021/04/23 06:34:46;;;;;;;22.57;11.93;;;;;;;6.44;66.24;99359.76;2227081;80;21224;-80
2021/04/23 06:37:48;;;;;;;20.60;9.80;;;;;;;6.83;65.44;99355.09;2226976;80;21122;-81
2021/04/23 06:40:50;;;;;;;15.73;9.20;;;;;;;6.97;63.80;99343.51;2226730;80;21122;-81
2021/04/23 06:43:51;;;;;;;17.63;9.90;;;;;;;6.97;63.80;99343.51;2226459;80;21244;-82
2021/04/23 06:46:52;;;;;;;20.00;10.23;;;;;;;6.99;63.32;99352.23;2226817;80;21097;-82
2021/04/23 06:49:55;;;;;;;16.63;9.47;;;;;;;7.10;62.52;99351.70;2226889;79;21126;-81
2021/04/23 06:53:00;;;;;;;22.03;11.40;;;;;;;7.23;63.01;99348.69;2227327;80;21394;-81
2021/04/23 06:56:02;;;;;;;19.07;9.10;;;;;;;7.56;62.17;99345.87;2227254;80;21298;-81
2021/04/23 06:59:03;;;;;;;20.90;10.10;;;;;;;7.65;61.19;99350.48;2226923;80;21074;-81
2021/04/23 07:02:04;;;;;;;18.60;10.57;;;;;;;7.40;61.88;99348.81;2226779;80;21102;-82
2021/04/23 07:05:05;;;;;;;17.27;10.80;;;;;;;7.41;62.40;99350.58;2227410;80;21352;-80
2021/04/23 07:08:06;;;;;;;19.30;10.40;;;;;;;7.59;62.28;99353.77;2226899;80;21133;-81
2021/04/23 07:11:07;;;;;;;19.70;11.03;;;;;;;7.87;62.20;99350.76;2238835;79;21134;-81
2021/04/23 07:14:08;;;;;;;12.80;9.27;;;;;;;8.10;60.74;99352.33;2258592;79;21100;-81
2021/04/23 07:17:11;;;;;;;20.53;10.00;;;;;;;8.53;59.62;99357.50;2258884;79;21109;-84
2021/04/23 07:20:12;;;;;;;17.83;9.13;;;;;;;8.39;58.25;99361.42;2258911;79;21140;-82
2021/04/23 07:23:13;;;;;;;20.40;10.63;;;;;;;8.57;57.51;99354.14;2259518;79;21459;-83
2021/04/23 07:26:14;;;;;;;16.97;9.80;;;;;;;8.76;57.50;99351.66;2259252;79;21073;-81
2021/04/23 07:29:17;;;;;;;17.90;9.63;;;;;;;8.79;58.22;99355.22;2258788;79;21316;-80
2021/04/23 07:32:18;;;;;;;16.90;8.70;;;;;;;9.10;56.86;99350.39;2258718;79;21104;-80
2021/04/23 07:35:19;;;;;;;11.70;7.43;;;;;;;9.15;57.21;99350.52;2259071;79;21112;-83
2021/04/23 07:38:20;;;;;;;17.30;9.30;;;;;;;9.09;56.15;99358.17;2259266;79;21426;-83
2021/04/23 07:41:21;;;;;;;17.40;9.87;;;;;;;9.05;55.70;99358.94;2259067;79;21440;-84
2021/04/23 07:44:22;;;;;;;18.50;9.00;;;;;;;9.00;56.58;99361.84;2258949;78;21129;-83
2021/04/23 07:47:24;;;;;;;16.37;9.30;;;;;;;9.00;56.42;99356.20;2258738;78;21096;-82
2021/04/23 07:50:25;;;;;;;17.27;10.17;;;;;;;8.92;55.82;99362.94;2258623;78;21108;-83
2021/04/23 07:53:26;;;;;;;42.93;18.57;;;;;;;9.04;56.17;99357.17;2259112;78;21058;-81
2021/04/23 07:56:27;;;;;;;28.13;13.23;;;;;;;9.19;55.29;99355.84;2258882;79;21092;-82
2021/04/23 07:59:28;;;;;;;14.33;9.07;;;;;;;9.31;55.70;99355.69;2259015;79;21168;-79
2021/04/23 08:02:29;;;;;;;17.83;8.20;;;;;;;9.60;54.88;99351.21;2259235;78;21132;-83
2021/04/23 08:05:31;;;;;;;18.37;9.40;;;;;;;9.73;52.19;99351.53;2259007;79;21254;-82
2021/04/23 08:08:32;;;;;;;21.13;9.90;;;;;;;9.91;52.08;99353.68;2259471;79;21263;-84
2021/04/23 08:11:33;;;;;;;27.67;11.83;;;;;;;9.68;52.13;99357.48;2259393;79;21379;-82
2021/04/23 08:14:34;;;;;;;13.50;8.87;;;;;;;9.97;52.12;99356.84;2259149;79;21410;-81
2021/04/23 08:17:36;;;;;;;14.37;7.53;;;;;;;10.11;51.30;99364.12;2259046;78;21235;-83
2021/04/23 08:20:38;;;;;;;15.13;7.42;;;;;;;10.22;50.52;99347.44;2258723;78;21180;-81
2021/04/23 08:23:39;;;;;;;11.75;7.90;;;;;;;10.46;49.62;99357.53;2258608;79;21378;-83
2021/04/23 08:26:42;;;;;;;11.60;7.10;;;;;;;10.42;47.76;99346.16;2259210;79;21089;-79
2021/04/23 08:29:43;;;;;;;9.60;6.90;;;;;;;10.13;49.01;99344.17;2258646;79;21101;-80
2021/04/23 08:32:44;;;;;;;11.03;7.20;;;;;;;9.83;48.02;99352.63;2260426;79;21103;-80
2021/04/23 08:35:45;;;;;;;17.93;8.30;;;;;;;9.47;47.76;99346.98;2259562;79;21084;-84
2021/04/23 08:38:47;;;;;;;12.67;7.70;;;;;;;9.27;48.86;99350.82;2258801;79;21124;-83
2021/04/23 08:41:49;;;;;;;13.77;7.57;;;;;;;9.01;50.91;99356.67;2259238;78;21180;-83
2021/04/23 08:44:50;;;;;;;15.23;7.47;;;;;;;9.25;51.79;99353.39;2259260;79;21089;-82
2021/04/23 08:47:51;;;;;;;14.33;7.60;;;;;;;9.84;49.64;99349.17;2259040;79;21093;-81
2021/04/23 08:50:52;;;;;;;12.53;6.77;;;;;;;9.80;50.43;99353.86;2259100;79;21152;-82
2021/04/23 08:53:54;;;;;;;14.27;6.87;;;;;;;9.67;47.08;99347.48;2258879;78;21112;-82
2021/04/23 08:56:55;;;;;;;11.57;6.53;;;;;;;9.93;48.07;99337.64;2259188;79;21076;-82
2021/04/23 08:59:56;;;;;;;11.90;5.83;;;;;;;10.36;46.60;99332.06;2259074;79;21160;-82
2021/04/23 09:02:57;;;;;;;6.70;5.50;;;;;;;10.64;43.61;99329.18;2259092;79;21216;-82
2021/04/23 09:05:58;;;;;;;9.37;5.40;;;;;;;10.37;43.50;99337.73;2258801;79;21109;-81
2021/04/23 09:08:59;;;;;;;13.83;5.50;;;;;;;10.13;43.73;99346.78;2258606;79;21128;-80
2021/04/23 09:12:00;;;;;;;12.00;5.80;;;;;;;9.59;44.39;99351.64;2258362;79;21375;-82
2021/04/23 09:15:02;;;;;;;9.87;5.70;;;;;;;9.31;46.91;99342.23;2258546;79;21069;-80
2021/04/23 09:18:03;;;;;;;9.73;5.90;;;;;;;9.30;47.26;99337.87;2258647;78;21069;-82
2021/04/23 09:21:04;;;;;;;9.43;4.83;;;;;;;9.74;47.89;99336.77;2258761;79;21151;-81
2021/04/23 09:24:05;;;;;;;9.40;5.53;;;;;;;10.29;44.65;99334.09;2259293;79;21386;-83
2021/04/23 09:27:09;;;;;;;7.10;4.45;;;;;;;10.32;42.05;99339.38;2259343;79;21104;-84
2021/04/23 09:30:11;;;;;;;8.67;5.50;;;;;;;10.10;41.29;99325.84;2258775;78;21132;-83
2021/04/23 09:33:12;;;;;;;8.43;5.30;;;;;;;9.78;42.79;99329.48;2258921;79;21398;-82
2021/04/23 09:36:13;;;;;;;9.90;4.83;;;;;;;9.56;44.60;99336.80;2259159;79;21108;-82
2021/04/23 09:39:14;;;;;;;6.50;5.20;;;;;;;9.68;45.17;99334.02;2259242;79;21092;-80
2021/04/23 09:42:15;;;;;;;9.53;5.00;;;;;;;10.39;45.64;99328.21;2259184;79;21310;-81
2021/04/23 09:45:18;;;;;;;9.73;4.40;;;;;;;10.96;42.74;99311.92;2259461;79;21217;-82
2021/04/23 09:48:19;;;;;;;10.32;4.62;;;;;;;11.52;41.76;99319.85;2259348;79;21136;-82
2021/04/23 09:51:20;;;;;;;12.00;4.62;;;;;;;11.55;39.08;99312.05;2259587;79;21095;-83
2021/04/23 09:54:22;;;;;;;11.05;4.22;;;;;;;11.37;39.14;99300.89;2260065;79;21125;-82
2021/04/23 09:57:23;;;;;;;11.12;5.03;;;;;;;11.18;38.90;99294.45;2259748;79;21093;-83
2021/04/23 10:00:25;;;;;;;8.80;3.95;;;;;;;10.87;39.29;99300.00;2259849;79;21148;-83
2021/04/23 10:03:26;;;;;;;8.10;4.17;;;;;;;10.64;37.14;99296.55;2259077;79;21101;-83
2021/04/23 10:06:32;;;;;;;23.53;5.10;;;;;;;10.45;39.38;99304.88;2259118;79;21124;-82
2021/04/23 10:09:30;;;;;;;18.50;5.20;;;;;;;10.12;42.97;99337.62;2258201;79;21116;-84
2021/04/23 10:12:31;;;;;;;8.93;4.77;;;;;;;9.35;48.27;99382.27;2241302;78;21415;-82
2021/04/23 10:15:32;;;;;;;15.53;5.10;;;;;;;8.88;50.53;99368.48;2227094;80;21102;-81
2021/04/23 10:18:33;;;;;;;7.83;4.30;;;;;;;8.72;51.97;99363.70;2227416;80;21109;-83
2021/04/23 10:21:35;;;;;;;13.93;5.63;;;;;;;8.47;53.59;99384.64;2227319;79;21128;-80
2021/04/23 10:24:36;;;;;;;11.37;6.73;;;;;;;8.20;54.68;99375.16;2227442;80;21114;-83
2021/04/23 10:27:37;;;;;;;9.27;5.73;;;;;;;7.90;55.84;99380.74;2227699;80;21098;-82
2021/04/23 10:30:38;;;;;;;14.37;6.13;;;;;;;7.81;56.71;99382.64;2227621;80;21117;-81
2021/04/23 10:33:39;;;;;;;10.33;5.60;;;;;;;7.75;56.97;99375.92;2227271;80;21074;-82
2021/04/23 10:36:41;;;;;;;15.90;6.23;;;;;;;8.15;56.52;99368.06;2227022;79;21122;-82
2021/04/23 10:39:42;;;;;;;9.63;5.60;;;;;;;8.40;55.50;99369.69;2227724;80;21278;-81
2021/04/23 10:42:43;;;;;;;12.67;5.50;;;;;;;8.85;54.58;99359.71;2227402;80;21101;-82
2021/04/23 10:45:46;;;;;;;8.85;5.08;;;;;;;9.28;52.42;99353.00;2227589;80;21098;-82
2021/04/23 10:48:49;;;;;;;10.98;5.05;;;;;;;9.70;51.17;99345.37;2227505;80;21391;-83
2021/04/23 10:51:50;;;;;;;5.90;4.05;;;;;;;10.01;49.74;99347.82;2227539;80;21181;-82
2021/04/23 10:54:51;;;;;;;10.87;4.57;;;;;;;9.88;46.74;99334.05;2227442;80;21225;-82
2021/04/23 10:57:52;;;;;;;6.35;4.70;;;;;;;10.16;46.79;99336.84;2227198;80;21075;-80
2021/04/23 11:00:53;;;;;;;8.38;4.90;;;;;;;10.06;46.31;99350.10;2227117;80;21267;-80
2021/04/23 11:03:55;;;;;;;6.80;4.33;;;;;;;10.15;47.42;99345.09;2227219;80;21101;-81
2021/04/23 11:06:56;;;;;;;8.15;4.10;;;;;;;10.49;47.16;99335.41;2227302;80;21220;-82
2021/04/23 11:09:57;;;;;;;6.22;3.92;;;;;;;10.71;45.89;99333.67;2227494;80;21101;-82
2021/04/23 11:12:58;;;;;;;7.67;4.33;;;;;;;10.77;45.90;99329.87;2247716;79;21148;-82
2021/04/23 11:15:59;;;;;;;8.08;5.08;;;;;;;10.74;45.81;99337.64;2258816;79;21096;-80
2021/04/23 11:19:00;;;;;;;8.25;4.45;;;;;;;10.36;46.05;99341.20;2258950;79;21065;-80
2021/04/23 11:22:01;;;;;;;20.90;5.15;;;;;;;9.87;46.84;99357.06;2259118;79;21259;-83
2021/04/23 11:25:02;;;;;;;12.20;5.83;;;;;;;9.18;51.40;99368.82;2259172;79;21100;-83
2021/04/23 11:28:05;;;;;;;11.00;5.70;;;;;;;8.51;56.14;99387.38;2259313;79;21222;-84
2021/04/23 11:31:08;;;;;;;11.60;9.13;;;;;;;8.07;57.26;99383.86;2260210;79;21133;-82
2021/04/23 11:34:10;;;;;;;21.80;7.17;;;;;;;8.11;58.52;99351.91;2259953;79;21195;-83
2021/04/23 11:37:13;;;;;;;21.60;9.40;;;;;;;8.42;59.17;99375.83;2259102;79;21101;-82
2021/04/23 11:40:15;;;;;;;10.97;5.63;;;;;;;8.58;58.23;99365.02;2259306;79;21550;-81
2021/04/23 11:43:16;;;;;;;11.90;5.80;;;;;;;8.66;55.62;99371.31;2259324;78;21211;-83
2021/04/23 11:46:18;;;;;;;18.83;12.63;;;;;;;8.42;53.64;99370.63;2259525;79;21096;-82
2021/04/23 11:49:19;;;;;;;13.57;8.73;;;;;;;8.41;54.13;99359.33;2259327;79;21104;-81
2021/04/23 11:52:20;;;;;;;11.37;6.37;;;;;;;8.43;54.56;99343.77;2259558;79;21414;-82
2021/04/23 11:55:21;;;;;;;5.73;4.40;;;;;;;8.40;53.31;99337.18;2259068;79;21069;-81
2021/04/23 11:58:22;;;;;;;7.93;4.90;;;;;;;8.57;55.53;99335.92;2258577;78;21092;-80
2021/04/23 12:01:23;;;;;;;7.23;4.17;;;;;;;8.97;55.42;99338.33;2258677;79;21426;-81
2021/04/23 12:04:24;;;;;;;8.40;4.47;;;;;;;9.25;55.59;99326.45;2258967;79;21121;-80
2021/04/23 12:07:25;;;;;;;14.58;5.00;;;;;;;9.55;53.80;99331.56;2258961;79;21148;-82
2021/04/23 12:10:26;;;;;;;10.97;4.50;;;;;;;9.52;53.09;99333.63;2258835;79;21214;-81
2021/04/23 12:13:27;;;;;;;8.50;5.27;;;;;;;9.52;54.03;99335.36;2236618;79;21431;-81
2021/04/23 12:16:30;;;;;;;12.50;6.07;;;;;;;9.45;53.08;99334.33;2204785;80;22057;-79
2021/04/23 12:19:31;;;;;;;15.63;6.67;;;;;;;9.35;53.68;99333.66;2226967;80;21582;-79
2021/04/23 12:22:32;;;;;;;19.47;9.10;;;;;;;9.40;54.42;99341.16;2227079;80;21220;-79
2021/04/23 12:25:34;;;;;;;13.87;8.03;;;;;;;9.42;53.26;99339.89;2227499;80;21364;-81
2021/04/23 12:28:35;;;;;;;12.10;5.93;;;;;;;9.35;51.31;99333.66;2227225;80;21101;-81
2021/04/23 12:31:36;;;;;;;11.13;6.83;;;;;;;9.44;51.78;99333.88;2228412;79;21106;-82
2021/04/23 12:34:37;;;;;;;7.67;5.63;;;;;;;9.57;53.42;99328.14;2227477;80;21213;-80
2021/04/23 12:37:38;;;;;;;17.40;6.13;;;;;;;9.79;52.96;99337.76;2227216;80;21288;-82
2021/04/23 12:40:39;;;;;;;11.73;5.67;;;;;;;10.09;52.11;99322.78;2227165;80;21133;-81
2021/04/23 12:43:41;;;;;;;17.87;7.47;;;;;;;10.33;53.17;99316.34;2226981;80;21391;-81
2021/04/23 12:46:42;;;;;;;8.27;5.60;;;;;;;10.40;53.03;99307.40;2227241;80;21078;-80
2021/04/23 12:49:43;;;;;;;13.37;7.07;;;;;;;10.77;50.85;99302.45;2226946;80;21096;-79
2021/04/23 12:52:44;;;;;;;8.35;5.33;;;;;;;11.03;51.06;99301.60;2226784;80;21106;-80
2021/04/23 12:55:45;;;;;;;11.15;6.03;;;;;;;11.13;48.15;99291.76;2226876;80;21396;-81
2021/04/23 12:58:47;;;;;;;14.70;7.07;;;;;;;11.12;49.95;99302.19;2227190;79;21126;-81
2021/04/23 13:01:50;;;;;;;10.58;6.17;;;;;;;11.11;47.66;99306.53;2226885;80;21185;-81
2021/04/23 13:04:51;;;;;;;9.45;6.33;;;;;;;11.34;48.00;99303.02;2227016;80;21101;-80
2021/04/23 13:07:52;;;;;;;10.90;5.85;;;;;;;11.73;47.66;99292.72;2226954;80;21153;-80
2021/04/23 13:10:56;;;;;;;9.93;6.00;;;;;;;12.32;45.40;99289.63;2227100;80;21252;-81
2021/04/23 13:13:58;;;;;;;8.43;5.95;;;;;;;12.60;42.89;99292.56;2248719;79;21312;-79
2021/04/23 13:16:59;;;;;;;9.43;5.90;;;;;;;12.54;42.95;99296.00;2258497;79;21081;-81
2021/04/23 13:20:00;;;;;;;12.28;6.45;;;;;;;12.27;43.80;99302.22;2258392;79;21183;-79
2021/04/23 13:23:01;;;;;;;10.20;6.55;;;;;;;11.65;43.61;99321.37;2258525;79;21113;-82
2021/04/23 13:26:03;;;;;;;9.30;5.40;;;;;;;11.22;44.83;99355.05;2258818;78;21108;-80
2021/04/23 13:29:06;;;;;;;7.23;5.30;;;;;;;10.10;48.01;99352.36;2259226;79;21105;-79
2021/04/23 13:32:07;;;;;;;9.43;5.83;;;;;;;9.29;51.80;99349.13;2258966;79;21413;-80
2021/04/23 13:35:08;;;;;;;9.57;5.90;;;;;;;8.81;53.22;99360.47;2258810;79;21108;-81
2021/04/23 13:38:09;;;;;;;7.70;5.83;;;;;;;8.62;54.88;99371.64;2259515;79;21139;-78
2021/04/23 13:41:10;;;;;;;11.97;5.60;;;;;;;8.57;55.52;99361.95;2258686;79;21160;-81
2021/04/23 13:44:11;;;;;;;12.90;5.13;;;;;;;8.59;56.13;99370.67;2259537;78;21075;-80
2021/04/23 13:47:13;;;;;;;12.53;5.93;;;;;;;8.76;55.19;99365.97;2259018;79;21190;-79
2021/04/23 13:50:16;;;;;;;9.25;5.28;;;;;;;8.84;55.28;99356.22;2259858;79;21124;-80
2021/04/23 13:53:17;;;;;;;19.77;6.27;;;;;;;8.91;55.13;99355.55;2260784;79;21077;-81
2021/04/23 13:56:18;;;;;;;10.73;5.23;;;;;;;8.99;54.71;99369.19;2260196;78;21108;-81
2021/04/23 13:59:20;;;;;;;9.77;6.07;;;;;;;8.92;53.69;99365.12;2259461;79;21112;-82
2021/04/23 14:02:21;;;;;;;9.87;6.07;;;;;;;8.92;54.13;99374.66;2260404;79;21128;-81
2021/04/23 14:05:22;;;;;;;13.97;6.63;;;;;;;8.99;55.32;99380.48;2259938;79;21120;-82
2021/04/23 14:08:23;;;;;;;9.43;5.97;;;;;;;8.89;54.17;99369.36;2258706;79;21105;-80
2021/04/23 14:11:24;;;;;;;14.43;6.03;;;;;;;8.69;54.79;99375.33;2258624;79;21105;-80